sensor_id;sensor_type;location;lat;lon;timestamp;temperature;humidity
3312;DHT22;1668;49.648;8.570;2023-04-03T00:00:41;5.20;99.90
3312;DHT22;1668;49.648;8.570;2023-04-03T00:03:08;5.10;99.90
3312;DHT22;1668;49.648;8.570;2023-04-03T00:05:37;5.10;99.90
3312;DHT22;1668;49.648;8.570;2023-04-03T00:08:04;5.00;99.90
3312;DHT22;1668;49.648;8.570;2023-04-03T00:10:33;5.10;1.00
3312;DHT22;1668;49.648;8.570;2023-04-03T00:13:00;5.00;1.00
3312;DHT22;1668;49.648;8.570;2023-04-03T00:15:27;5.00;1.00
3312;DHT22;1668;49.648;8.570;2023-04-03T00:17:54;5.00;1.00
3312;DHT22;1668;49.648;8.570;2023-04-03T00:20:21;5.00;1.00
3312;DHT22;1668;49.648;8.570;2023-04-03T00:22:49;4.90;1.00
3312;DHT22;1668;49.648;8.570;2023-04-03T00:25:16;4.90;1.00
3312;DHT22;1668;49.648;8.570;2023-04-03T00:27:43;4.90;1.00
3312;DHT22;1668;49.648;8.570;2023-04-03T00:30:13;4.80;1.00
3312;DHT22;1668;49.648;8.570;2023-04-03T00:32:41;4.80;1.00
3312;DHT22;1668;49.648;8.570;2023-04-03T00:35:08;4.80;1.00
3312;DHT22;1668;49.648;8.570;2023-04-03T00:37:35;4.80;1.00
3312;DHT22;1668;49.648;8.570;2023-04-03T00:40:06;4.70;1.00
3312;DHT22;1668;49.648;8.570;2023-04-03T00:42:34;4.70;1.00
3312;DHT22;1668;49.648;8.570;2023-04-03T00:45:24;4.70;65.10
3312;DHT22;1668;49.648;8.570;2023-04-03T00:47:51;4.70;92.50
3312;DHT22;1668;49.648;8.570;2023-04-03T00:50:18;4.70;7.60
3312;DHT22;1668;49.648;8.570;2023-04-03T00:52:45;4.60;99.90
3312;DHT22;1668;49.648;8.570;2023-04-03T00:55:16;4.60;99.90
3312;DHT22;1668;49.648;8.570;2023-04-03T00:57:44;4.60;99.90
3312;DHT22;1668;49.648;8.570;2023-04-03T01:00:14;4.60;99.90
3312;DHT22;1668;49.648;8.570;2023-04-03T01:02:42;4.60;99.90
3312;DHT22;1668;49.648;8.570;2023-04-03T01:05:10;4.60;99.90
3312;DHT22;1668;49.648;8.570;2023-04-03T01:07:37;4.50;99.90
3312;DHT22;1668;49.648;8.570;2023-04-03T01:10:07;4.50;99.90
3312;DHT22;1668;49.648;8.570;2023-04-03T01:12:38;4.50;99.90
3312;DHT22;1668;49.648;8.570;2023-04-03T01:15:08;4.40;99.90
3312;DHT22;1668;49.648;8.570;2023-04-03T01:17:37;4.40;99.90
3312;DHT22;1668;49.648;8.570;2023-04-03T01:23:23;4.30;99.90
3312;DHT22;1668;49.648;8.570;2023-04-03T01:25:54;4.30;1.00
3312;DHT22;1668;49.648;8.570;2023-04-03T01:28:25;4.30;99.90
3312;DHT22;1668;49.648;8.570;2023-04-03T01:30:58;4.20;1.00
3312;DHT22;1668;49.648;8.570;2023-04-03T01:33:28;4.20;1.00
3312;DHT22;1668;49.648;8.570;2023-04-03T01:35:55;4.20;1.00
3312;DHT22;1668;49.648;8.570;2023-04-03T01:38:22;4.20;1.00
3312;DHT22;1668;49.648;8.570;2023-04-03T01:40:49;4.20;99.90
3312;DHT22;1668;49.648;8.570;2023-04-03T01:43:16;4.10;1.00
3312;DHT22;1668;49.648;8.570;2023-04-03T01:45:43;4.10;1.00
3312;DHT22;1668;49.648;8.570;2023-04-03T01:48:09;4.10;1.00
3312;DHT22;1668;49.648;8.570;2023-04-03T01:50:37;4.00;1.00
3312;DHT22;1668;49.648;8.570;2023-04-03T01:53:04;4.00;1.00
3312;DHT22;1668;49.648;8.570;2023-04-03T01:55:31;4.00;1.00
3312;DHT22;1668;49.648;8.570;2023-04-03T01:57:58;3.90;99.90
3312;DHT22;1668;49.648;8.570;2023-04-03T02:00:25;3.90;99.90
3312;DHT22;1668;49.648;8.570;2023-04-03T02:02:53;3.90;1.00
3312;DHT22;1668;49.648;8.570;2023-04-03T02:05:19;3.90;99.90
3312;DHT22;1668;49.648;8.570;2023-04-03T02:07:48;3.80;99.90
3312;DHT22;1668;49.648;8.570;2023-04-03T02:10:15;3.80;99.90
3312;DHT22;1668;49.648;8.570;2023-04-03T02:12:41;3.70;1.00
3312;DHT22;1668;49.648;8.570;2023-04-03T02:15:09;3.70;1.00
3312;DHT22;1668;49.648;8.570;2023-04-03T02:17:36;3.70;1.00
3312;DHT22;1668;49.648;8.570;2023-04-03T02:20:03;3.60;1.00
3312;DHT22;1668;49.648;8.570;2023-04-03T02:22:31;3.60;99.90
3312;DHT22;1668;49.648;8.570;2023-04-03T02:24:59;3.60;1.00
3312;DHT22;1668;49.648;8.570;2023-04-03T02:27:26;3.60;99.90
3312;DHT22;1668;49.648;8.570;2023-04-03T02:29:53;3.60;1.00
3312;DHT22;1668;49.648;8.570;2023-04-03T02:32:20;3.60;1.00
3312;DHT22;1668;49.648;8.570;2023-04-03T02:34:47;3.50;11.90
3312;DHT22;1668;49.648;8.570;2023-04-03T02:37:14;3.50;1.00
3312;DHT22;1668;49.648;8.570;2023-04-03T02:39:41;3.50;99.90
3312;DHT22;1668;49.648;8.570;2023-04-03T02:42:09;3.50;99.90
3312;DHT22;1668;49.648;8.570;2023-04-03T02:44:36;3.50;99.90
3312;DHT22;1668;49.648;8.570;2023-04-03T02:47:04;3.40;1.00
3312;DHT22;1668;49.648;8.570;2023-04-03T02:49:31;3.40;1.00
3312;DHT22;1668;49.648;8.570;2023-04-03T02:51:58;3.30;99.90
3312;DHT22;1668;49.648;8.570;2023-04-03T02:54:25;3.30;99.90
3312;DHT22;1668;49.648;8.570;2023-04-03T02:56:54;3.20;45.90
3312;DHT22;1668;49.648;8.570;2023-04-03T02:59:22;3.20;1.00
3312;DHT22;1668;49.648;8.570;2023-04-03T03:01:50;3.10;1.00
3312;DHT22;1668;49.648;8.570;2023-04-03T03:04:17;3.00;99.00
3312;DHT22;1668;49.648;8.570;2023-04-03T03:06:43;3.00;1.00
3312;DHT22;1668;49.648;8.570;2023-04-03T03:09:12;3.00;1.00
3312;DHT22;1668;49.648;8.570;2023-04-03T03:11:39;2.90;1.00
3312;DHT22;1668;49.648;8.570;2023-04-03T03:14:06;3.00;99.90
3312;DHT22;1668;49.648;8.570;2023-04-03T03:16:34;3.00;99.90
3312;DHT22;1668;49.648;8.570;2023-04-03T03:19:01;3.00;1.00
3312;DHT22;1668;49.648;8.570;2023-04-03T03:21:28;3.00;1.00
3312;DHT22;1668;49.648;8.570;2023-04-03T03:23:55;2.90;1.00
3312;DHT22;1668;49.648;8.570;2023-04-03T03:26:22;2.90;1.00
3312;DHT22;1668;49.648;8.570;2023-04-03T03:28:49;2.90;35.00
3312;DHT22;1668;49.648;8.570;2023-04-03T03:31:16;2.90;99.90
3312;DHT22;1668;49.648;8.570;2023-04-03T03:33:44;2.90;1.00
3312;DHT22;1668;49.648;8.570;2023-04-03T03:36:11;2.90;99.90
3312;DHT22;1668;49.648;8.570;2023-04-03T03:38:38;2.90;12.30
3312;DHT22;1668;49.648;8.570;2023-04-03T03:41:05;2.80;99.90
3312;DHT22;1668;49.648;8.570;2023-04-03T03:43:32;2.80;99.90
3312;DHT22;1668;49.648;8.570;2023-04-03T03:45:58;2.80;99.90
3312;DHT22;1668;49.648;8.570;2023-04-03T03:48:25;2.80;99.90
3312;DHT22;1668;49.648;8.570;2023-04-03T03:50:53;2.80;99.90
3312;DHT22;1668;49.648;8.570;2023-04-03T03:53:20;2.80;1.00
3312;DHT22;1668;49.648;8.570;2023-04-03T03:55:47;2.80;1.00
3312;DHT22;1668;49.648;8.570;2023-04-03T03:58:14;2.70;1.00
3312;DHT22;1668;49.648;8.570;2023-04-03T04:00:41;2.70;1.00
3312;DHT22;1668;49.648;8.570;2023-04-03T04:03:07;2.70;1.00
3312;DHT22;1668;49.648;8.570;2023-04-03T04:05:34;2.70;99.90
3312;DHT22;1668;49.648;8.570;2023-04-03T04:08:02;2.70;1.00
3312;DHT22;1668;49.648;8.570;2023-04-03T04:10:29;2.70;1.00
3312;DHT22;1668;49.648;8.570;2023-04-03T04:12:56;2.60;99.90
3312;DHT22;1668;49.648;8.570;2023-04-03T04:15:23;2.60;99.90
3312;DHT22;1668;49.648;8.570;2023-04-03T04:17:51;2.60;1.00
3312;DHT22;1668;49.648;8.570;2023-04-03T04:20:18;2.60;99.90
3312;DHT22;1668;49.648;8.570;2023-04-03T04:22:45;2.60;1.00
3312;DHT22;1668;49.648;8.570;2023-04-03T04:25:13;2.60;1.00
3312;DHT22;1668;49.648;8.570;2023-04-03T04:27:40;2.60;12.60
3312;DHT22;1668;49.648;8.570;2023-04-03T04:30:08;2.60;1.00
3312;DHT22;1668;49.648;8.570;2023-04-03T04:32:35;2.50;99.90
3312;DHT22;1668;49.648;8.570;2023-04-03T04:35:03;2.50;99.90
3312;DHT22;1668;49.648;8.570;2023-04-03T04:37:30;2.50;1.00
3312;DHT22;1668;49.648;8.570;2023-04-03T04:39:57;2.50;1.00
3312;DHT22;1668;49.648;8.570;2023-04-03T04:42:25;2.40;1.00
3312;DHT22;1668;49.648;8.570;2023-04-03T04:44:52;2.40;1.00
3312;DHT22;1668;49.648;8.570;2023-04-03T04:47:19;2.40;1.00
3312;DHT22;1668;49.648;8.570;2023-04-03T04:49:46;2.40;99.90
3312;DHT22;1668;49.648;8.570;2023-04-03T04:52:14;2.40;99.90
3312;DHT22;1668;49.648;8.570;2023-04-03T04:54:40;2.40;29.60
3312;DHT22;1668;49.648;8.570;2023-04-03T04:57:07;2.30;1.00
3312;DHT22;1668;49.648;8.570;2023-04-03T04:59:35;2.30;99.90
3312;DHT22;1668;49.648;8.570;2023-04-03T05:02:02;2.30;99.90
3312;DHT22;1668;49.648;8.570;2023-04-03T05:04:29;2.20;99.90
3312;DHT22;1668;49.648;8.570;2023-04-03T05:06:56;2.30;1.00
3312;DHT22;1668;49.648;8.570;2023-04-03T05:09:24;2.30;1.00
3312;DHT22;1668;49.648;8.570;2023-04-03T05:11:51;2.30;1.00
3312;DHT22;1668;49.648;8.570;2023-04-03T05:14:18;2.30;1.00
3312;DHT22;1668;49.648;8.570;2023-04-03T05:16:46;2.30;1.00
3312;DHT22;1668;49.648;8.570;2023-04-03T05:19:14;2.30;1.00
3312;DHT22;1668;49.648;8.570;2023-04-03T05:21:40;2.30;1.00
3312;DHT22;1668;49.648;8.570;2023-04-03T05:24:07;2.30;1.00
3312;DHT22;1668;49.648;8.570;2023-04-03T05:26:35;2.20;1.00
3312;DHT22;1668;49.648;8.570;2023-04-03T05:29:02;2.20;99.90
3312;DHT22;1668;49.648;8.570;2023-04-03T05:31:29;2.20;99.90
3312;DHT22;1668;49.648;8.570;2023-04-03T05:33:57;2.20;99.90
3312;DHT22;1668;49.648;8.570;2023-04-03T05:36:24;2.20;99.90
3312;DHT22;1668;49.648;8.570;2023-04-03T05:38:51;2.20;1.00
3312;DHT22;1668;49.648;8.570;2023-04-03T05:41:18;2.30;99.90
3312;DHT22;1668;49.648;8.570;2023-04-03T05:43:46;2.20;99.90
3312;DHT22;1668;49.648;8.570;2023-04-03T05:46:14;2.20;99.90
3312;DHT22;1668;49.648;8.570;2023-04-03T05:48:41;2.20;1.00
3312;DHT22;1668;49.648;8.570;2023-04-03T05:51:14;2.20;1.00
3312;DHT22;1668;49.648;8.570;2023-04-03T05:53:41;2.30;1.00
3312;DHT22;1668;49.648;8.570;2023-04-03T05:56:09;2.20;1.00
3312;DHT22;1668;49.648;8.570;2023-04-03T05:58:36;2.20;1.00
3312;DHT22;1668;49.648;8.570;2023-04-03T06:01:03;2.30;1.00
3312;DHT22;1668;49.648;8.570;2023-04-03T06:03:31;2.30;1.00
3312;DHT22;1668;49.648;8.570;2023-04-03T06:05:57;2.30;18.30
3312;DHT22;1668;49.648;8.570;2023-04-03T06:08:26;2.30;48.70
3312;DHT22;1668;49.648;8.570;2023-04-03T06:10:53;2.40;69.20
3312;DHT22;1668;49.648;8.570;2023-04-03T06:13:20;2.40;92.40
3312;DHT22;1668;49.648;8.570;2023-04-03T06:15:47;2.40;93.80
3312;DHT22;1668;49.648;8.570;2023-04-03T06:18:14;2.50;99.90
3312;DHT22;1668;49.648;8.570;2023-04-03T06:20:41;2.50;99.90
3312;DHT22;1668;49.648;8.570;2023-04-03T06:23:08;2.50;99.90
3312;DHT22;1668;49.648;8.570;2023-04-03T06:25:37;2.60;99.10
3312;DHT22;1668;49.648;8.570;2023-04-03T06:28:04;2.60;54.60
3312;DHT22;1668;49.648;8.570;2023-04-03T06:30:31;2.70;41.10
3312;DHT22;1668;49.648;8.570;2023-04-03T06:32:58;2.80;99.90
3312;DHT22;1668;49.648;8.570;2023-04-03T06:35:24;2.80;99.90
3312;DHT22;1668;49.648;8.570;2023-04-03T06:37:53;2.90;99.90
3312;DHT22;1668;49.648;8.570;2023-04-03T06:40:23;3.00;99.90
3312;DHT22;1668;49.648;8.570;2023-04-03T06:42:51;3.00;99.90
3312;DHT22;1668;49.648;8.570;2023-04-03T06:45:18;3.00;55.80
3312;DHT22;1668;49.648;8.570;2023-04-03T06:47:45;3.10;1.00
3312;DHT22;1668;49.648;8.570;2023-04-03T06:50:12;3.10;1.00
3312;DHT22;1668;49.648;8.570;2023-04-03T06:52:41;3.20;1.00
3312;DHT22;1668;49.648;8.570;2023-04-03T06:55:08;3.30;18.90
3312;DHT22;1668;49.648;8.570;2023-04-03T06:57:35;3.40;1.00
3312;DHT22;1668;49.648;8.570;2023-04-03T07:00:05;3.50;1.00
3312;DHT22;1668;49.648;8.570;2023-04-03T07:02:33;3.60;1.00
3312;DHT22;1668;49.648;8.570;2023-04-03T07:05:00;3.60;99.90
3312;DHT22;1668;49.648;8.570;2023-04-03T07:07:26;3.70;99.90
3312;DHT22;1668;49.648;8.570;2023-04-03T07:09:53;3.80;1.00
3312;DHT22;1668;49.648;8.570;2023-04-03T07:12:20;3.80;1.00
3312;DHT22;1668;49.648;8.570;2023-04-03T07:14:47;3.90;99.90
3312;DHT22;1668;49.648;8.570;2023-04-03T07:17:15;4.00;1.00
3312;DHT22;1668;49.648;8.570;2023-04-03T07:19:42;4.10;1.00
3312;DHT22;1668;49.648;8.570;2023-04-03T07:22:09;4.10;1.00
3312;DHT22;1668;49.648;8.570;2023-04-03T07:24:36;4.20;1.00
3312;DHT22;1668;49.648;8.570;2023-04-03T07:27:03;4.30;1.00
3312;DHT22;1668;49.648;8.570;2023-04-03T07:29:30;4.40;99.90
3312;DHT22;1668;49.648;8.570;2023-04-03T07:31:58;4.40;1.00
3312;DHT22;1668;49.648;8.570;2023-04-03T07:34:26;4.50;1.00
3312;DHT22;1668;49.648;8.570;2023-04-03T07:36:53;4.60;99.90
3312;DHT22;1668;49.648;8.570;2023-04-03T07:39:20;4.60;1.00
3312;DHT22;1668;49.648;8.570;2023-04-03T07:41:47;4.70;1.00
3312;DHT22;1668;49.648;8.570;2023-04-03T07:44:14;4.70;99.90
3312;DHT22;1668;49.648;8.570;2023-04-03T07:46:40;4.80;99.90
3312;DHT22;1668;49.648;8.570;2023-04-03T07:49:08;4.80;99.90
3312;DHT22;1668;49.648;8.570;2023-04-03T07:51:36;4.90;99.90
3312;DHT22;1668;49.648;8.570;2023-04-03T07:54:03;4.90;99.90
3312;DHT22;1668;49.648;8.570;2023-04-03T07:56:30;5.00;99.90
3312;DHT22;1668;49.648;8.570;2023-04-03T07:58:57;5.10;1.00
3312;DHT22;1668;49.648;8.570;2023-04-03T08:01:24;5.10;1.00
3312;DHT22;1668;49.648;8.570;2023-04-03T08:03:51;5.20;1.00
3312;DHT22;1668;49.648;8.570;2023-04-03T08:06:18;5.20;1.00
3312;DHT22;1668;49.648;8.570;2023-04-03T08:08:46;5.30;1.00
3312;DHT22;1668;49.648;8.570;2023-04-03T08:11:13;5.30;99.90
3312;DHT22;1668;49.648;8.570;2023-04-03T08:13:40;5.40;99.90
3312;DHT22;1668;49.648;8.570;2023-04-03T08:16:14;5.40;99.90
3312;DHT22;1668;49.648;8.570;2023-04-03T08:18:42;5.50;99.90
3312;DHT22;1668;49.648;8.570;2023-04-03T08:21:09;5.50;99.90
3312;DHT22;1668;49.648;8.570;2023-04-03T08:23:37;5.40;1.00
3312;DHT22;1668;49.648;8.570;2023-04-03T08:26:10;5.40;1.00
3312;DHT22;1668;49.648;8.570;2023-04-03T08:28:38;5.40;1.00
3312;DHT22;1668;49.648;8.570;2023-04-03T08:31:07;5.40;1.00
3312;DHT22;1668;49.648;8.570;2023-04-03T08:33:36;5.50;1.00
3312;DHT22;1668;49.648;8.570;2023-04-03T08:36:04;5.60;1.00
3312;DHT22;1668;49.648;8.570;2023-04-03T08:38:31;5.60;1.00
3312;DHT22;1668;49.648;8.570;2023-04-03T08:41:04;5.60;1.00
3312;DHT22;1668;49.648;8.570;2023-04-03T08:43:56;5.70;1.00
3312;DHT22;1668;49.648;8.570;2023-04-03T08:46:29;5.70;1.00
3312;DHT22;1668;49.648;8.570;2023-04-03T08:48:59;5.80;1.00
3312;DHT22;1668;49.648;8.570;2023-04-03T08:51:28;5.90;1.00
3312;DHT22;1668;49.648;8.570;2023-04-03T08:53:58;5.90;1.00
3312;DHT22;1668;49.648;8.570;2023-04-03T08:56:27;5.80;1.00
3312;DHT22;1668;49.648;8.570;2023-04-03T08:58:59;5.90;1.00
3312;DHT22;1668;49.648;8.570;2023-04-03T09:01:33;6.10;1.00
3312;DHT22;1668;49.648;8.570;2023-04-03T09:04:01;6.30;1.00
3312;DHT22;1668;49.648;8.570;2023-04-03T09:06:31;6.50;1.00
3312;DHT22;1668;49.648;8.570;2023-04-03T09:09:08;6.80;1.00
3312;DHT22;1668;49.648;8.570;2023-04-03T09:11:47;7.00;1.00
3312;DHT22;1668;49.648;8.570;2023-04-03T09:14:24;7.20;1.00
3312;DHT22;1668;49.648;8.570;2023-04-03T09:16:55;7.20;1.00
3312;DHT22;1668;49.648;8.570;2023-04-03T09:19:35;7.30;1.00
3312;DHT22;1668;49.648;8.570;2023-04-03T09:22:13;7.30;1.00
3312;DHT22;1668;49.648;8.570;2023-04-03T09:24:43;7.30;1.00
3312;DHT22;1668;49.648;8.570;2023-04-03T09:27:11;7.30;1.00
3312;DHT22;1668;49.648;8.570;2023-04-03T09:29:42;7.20;1.00
3312;DHT22;1668;49.648;8.570;2023-04-03T09:32:25;7.30;1.00
3312;DHT22;1668;49.648;8.570;2023-04-03T09:34:53;7.40;1.00
3312;DHT22;1668;49.648;8.570;2023-04-03T09:37:37;7.40;1.00
3312;DHT22;1668;49.648;8.570;2023-04-03T09:40:11;7.40;1.00
3312;DHT22;1668;49.648;8.570;2023-04-03T09:42:56;7.40;1.00
3312;DHT22;1668;49.648;8.570;2023-04-03T09:45:27;7.50;1.00
3312;DHT22;1668;49.648;8.570;2023-04-03T09:48:15;7.40;1.00
3312;DHT22;1668;49.648;8.570;2023-04-03T09:50:54;7.40;1.00
3312;DHT22;1668;49.648;8.570;2023-04-03T09:53:30;7.40;1.00
3312;DHT22;1668;49.648;8.570;2023-04-03T09:55:57;7.60;1.00
3312;DHT22;1668;49.648;8.570;2023-04-03T09:58:27;7.80;1.00
3312;DHT22;1668;49.648;8.570;2023-04-03T10:00:57;7.80;1.00
3312;DHT22;1668;49.648;8.570;2023-04-03T10:03:29;7.80;1.00
3312;DHT22;1668;49.648;8.570;2023-04-03T10:05:57;7.80;1.00
3312;DHT22;1668;49.648;8.570;2023-04-03T10:08:27;7.80;1.00
3312;DHT22;1668;49.648;8.570;2023-04-03T10:11:12;7.80;1.00
3312;DHT22;1668;49.648;8.570;2023-04-03T10:14:01;7.90;1.00
3312;DHT22;1668;49.648;8.570;2023-04-03T10:16:36;8.00;1.00
3312;DHT22;1668;49.648;8.570;2023-04-03T10:19:23;8.00;1.00
3312;DHT22;1668;49.648;8.570;2023-04-03T10:21:57;8.00;1.00
3312;DHT22;1668;49.648;8.570;2023-04-03T10:24:31;8.20;1.00
3312;DHT22;1668;49.648;8.570;2023-04-03T10:27:06;8.50;1.00
3312;DHT22;1668;49.648;8.570;2023-04-03T10:29:43;8.80;1.00
3312;DHT22;1668;49.648;8.570;2023-04-03T10:32:26;9.00;1.00
3312;DHT22;1668;49.648;8.570;2023-04-03T10:35:02;9.20;1.00
3312;DHT22;1668;49.648;8.570;2023-04-03T10:37:41;9.40;1.00
3312;DHT22;1668;49.648;8.570;2023-04-03T10:40:22;9.60;1.00
3312;DHT22;1668;49.648;8.570;2023-04-03T10:42:53;9.60;1.00
3312;DHT22;1668;49.648;8.570;2023-04-03T10:45:26;9.70;1.00
3312;DHT22;1668;49.648;8.570;2023-04-03T10:48:02;9.80;1.00
3312;DHT22;1668;49.648;8.570;2023-04-03T10:50:42;10.00;1.00
3312;DHT22;1668;49.648;8.570;2023-04-03T10:53:17;10.20;1.00
3312;DHT22;1668;49.648;8.570;2023-04-03T10:55:51;10.10;1.00
3312;DHT22;1668;49.648;8.570;2023-04-03T10:58:26;10.10;1.00
3312;DHT22;1668;49.648;8.570;2023-04-03T11:00:57;9.90;1.00
3312;DHT22;1668;49.648;8.570;2023-04-03T11:03:30;9.80;1.00
3312;DHT22;1668;49.648;8.570;2023-04-03T11:06:02;9.70;1.00
3312;DHT22;1668;49.648;8.570;2023-04-03T11:08:35;9.70;1.00
3312;DHT22;1668;49.648;8.570;2023-04-03T11:11:06;9.60;1.00
3312;DHT22;1668;49.648;8.570;2023-04-03T11:13:38;9.50;1.00
3312;DHT22;1668;49.648;8.570;2023-04-03T11:16:06;9.60;1.00
3312;DHT22;1668;49.648;8.570;2023-04-03T11:18:39;9.80;1.00
3312;DHT22;1668;49.648;8.570;2023-04-03T11:21:12;9.60;1.00
3312;DHT22;1668;49.648;8.570;2023-04-03T11:23:41;9.50;1.00
3312;DHT22;1668;49.648;8.570;2023-04-03T11:26:10;9.50;1.00
3312;DHT22;1668;49.648;8.570;2023-04-03T11:28:38;9.60;1.00
3312;DHT22;1668;49.648;8.570;2023-04-03T11:31:24;9.60;1.00
3312;DHT22;1668;49.648;8.570;2023-04-03T11:34:05;9.80;1.00
3312;DHT22;1668;49.648;8.570;2023-04-03T11:36:40;9.80;1.00
3312;DHT22;1668;49.648;8.570;2023-04-03T11:39:17;9.80;1.00
3312;DHT22;1668;49.648;8.570;2023-04-03T11:41:45;9.80;1.00
3312;DHT22;1668;49.648;8.570;2023-04-03T11:44:30;10.00;1.00
3312;DHT22;1668;49.648;8.570;2023-04-03T11:47:00;10.40;1.00
3312;DHT22;1668;49.648;8.570;2023-04-03T11:50:00;10.60;1.00
3312;DHT22;1668;49.648;8.570;2023-04-03T11:52:59;10.50;1.00
3312;DHT22;1668;49.648;8.570;2023-04-03T11:55:56;10.60;1.00
3312;DHT22;1668;49.648;8.570;2023-04-03T11:58:25;10.80;1.00
3312;DHT22;1668;49.648;8.570;2023-04-03T12:01:09;10.80;1.00
3312;DHT22;1668;49.648;8.570;2023-04-03T12:07:08;11.30;1.00
3312;DHT22;1668;49.648;8.570;2023-04-03T12:10:15;11.70;1.00
3312;DHT22;1668;49.648;8.570;2023-04-03T12:12:55;11.60;1.00
3312;DHT22;1668;49.648;8.570;2023-04-03T12:15:52;11.30;1.00
3312;DHT22;1668;49.648;8.570;2023-04-03T12:18:40;11.00;1.00
3312;DHT22;1668;49.648;8.570;2023-04-03T12:21:07;10.60;1.00
3312;DHT22;1668;49.648;8.570;2023-04-03T12:23:36;10.50;1.00
3312;DHT22;1668;49.648;8.570;2023-04-03T12:26:24;10.50;1.00
3312;DHT22;1668;49.648;8.570;2023-04-03T12:28:53;10.50;1.00
3312;DHT22;1668;49.648;8.570;2023-04-03T12:31:24;10.90;1.00
3312;DHT22;1668;49.648;8.570;2023-04-03T12:34:18;11.30;1.00
3312;DHT22;1668;49.648;8.570;2023-04-03T12:36:58;11.60;1.00
3312;DHT22;1668;49.648;8.570;2023-04-03T12:39:53;11.80;1.00
3312;DHT22;1668;49.648;8.570;2023-04-03T12:42:37;11.50;1.00
3312;DHT22;1668;49.648;8.570;2023-04-03T12:45:16;11.40;1.00
3312;DHT22;1668;49.648;8.570;2023-04-03T12:47:44;11.50;1.00
3312;DHT22;1668;49.648;8.570;2023-04-03T12:50:21;11.50;1.00
3312;DHT22;1668;49.648;8.570;2023-04-03T12:52:54;11.60;1.00
3312;DHT22;1668;49.648;8.570;2023-04-03T12:55:24;11.30;1.00
3312;DHT22;1668;49.648;8.570;2023-04-03T12:57:52;11.20;1.00
3312;DHT22;1668;49.648;8.570;2023-04-03T13:00:32;11.40;1.00
3312;DHT22;1668;49.648;8.570;2023-04-03T13:03:01;11.30;1.00
3312;DHT22;1668;49.648;8.570;2023-04-03T13:05:29;11.20;1.00
3312;DHT22;1668;49.648;8.570;2023-04-03T13:07:59;11.10;1.00
3312;DHT22;1668;49.648;8.570;2023-04-03T13:10:30;10.80;1.00
3312;DHT22;1668;49.648;8.570;2023-04-03T13:13:06;10.60;1.00
3312;DHT22;1668;49.648;8.570;2023-04-03T13:15:41;10.50;1.00
3312;DHT22;1668;49.648;8.570;2023-04-03T13:18:26;10.50;1.00
3312;DHT22;1668;49.648;8.570;2023-04-03T13:20:58;10.70;1.00
3312;DHT22;1668;49.648;8.570;2023-04-03T13:23:27;11.00;1.00
3312;DHT22;1668;49.648;8.570;2023-04-03T13:25:57;11.30;1.00
3312;DHT22;1668;49.648;8.570;2023-04-03T13:28:28;11.30;1.00
3312;DHT22;1668;49.648;8.570;2023-04-03T13:31:06;11.50;1.00
3312;DHT22;1668;49.648;8.570;2023-04-03T13:33:36;11.50;1.00
3312;DHT22;1668;49.648;8.570;2023-04-03T13:36:06;11.40;1.00
3312;DHT22;1668;49.648;8.570;2023-04-03T13:38:34;11.40;1.00
3312;DHT22;1668;49.648;8.570;2023-04-03T13:41:05;11.40;1.00
3312;DHT22;1668;49.648;8.570;2023-04-03T13:43:46;11.60;1.00
3312;DHT22;1668;49.648;8.570;2023-04-03T13:46:25;11.50;1.00
3312;DHT22;1668;49.648;8.570;2023-04-03T13:48:54;11.90;1.00
3312;DHT22;1668;49.648;8.570;2023-04-03T13:51:23;12.40;1.00
3312;DHT22;1668;49.648;8.570;2023-04-03T13:53:52;12.30;1.00
3312;DHT22;1668;49.648;8.570;2023-04-03T13:56:25;12.00;1.00
3312;DHT22;1668;49.648;8.570;2023-04-03T13:59:00;12.10;1.00
3312;DHT22;1668;49.648;8.570;2023-04-03T14:01:37;12.50;1.00
3312;DHT22;1668;49.648;8.570;2023-04-03T14:04:12;12.80;1.00
3312;DHT22;1668;49.648;8.570;2023-04-03T14:06:40;13.10;1.00
3312;DHT22;1668;49.648;8.570;2023-04-03T14:09:07;13.30;1.00
3312;DHT22;1668;49.648;8.570;2023-04-03T14:11:35;13.30;1.00
3312;DHT22;1668;49.648;8.570;2023-04-03T14:14:09;13.30;1.00
3312;DHT22;1668;49.648;8.570;2023-04-03T14:16:39;13.50;1.00
3312;DHT22;1668;49.648;8.570;2023-04-03T14:19:09;13.40;1.00
3312;DHT22;1668;49.648;8.570;2023-04-03T14:21:41;13.00;1.00
3312;DHT22;1668;49.648;8.570;2023-04-03T14:24:08;13.30;1.00
3312;DHT22;1668;49.648;8.570;2023-04-03T14:26:36;13.80;1.00
3312;DHT22;1668;49.648;8.570;2023-04-03T14:29:03;14.10;1.00
3312;DHT22;1668;49.648;8.570;2023-04-03T14:31:29;14.20;1.00
3312;DHT22;1668;49.648;8.570;2023-04-03T14:33:56;14.60;1.00
3312;DHT22;1668;49.648;8.570;2023-04-03T14:36:25;14.70;1.00
3312;DHT22;1668;49.648;8.570;2023-04-03T14:38:53;14.40;1.00
3312;DHT22;1668;49.648;8.570;2023-04-03T14:41:23;14.60;1.00
3312;DHT22;1668;49.648;8.570;2023-04-03T14:43:52;14.00;1.00
3312;DHT22;1668;49.648;8.570;2023-04-03T14:46:22;13.80;1.00
3312;DHT22;1668;49.648;8.570;2023-04-03T14:48:50;13.20;99.90
3312;DHT22;1668;49.648;8.570;2023-04-03T14:51:17;13.10;1.00
3312;DHT22;1668;49.648;8.570;2023-04-03T14:53:44;13.00;1.00
3312;DHT22;1668;49.648;8.570;2023-04-03T14:56:13;12.70;99.90
3312;DHT22;1668;49.648;8.570;2023-04-03T14:58:40;13.10;1.00
3312;DHT22;1668;49.648;8.570;2023-04-03T15:01:10;13.40;1.00
3312;DHT22;1668;49.648;8.570;2023-04-03T15:03:37;13.30;99.90
3312;DHT22;1668;49.648;8.570;2023-04-03T15:06:05;13.20;99.90
3312;DHT22;1668;49.648;8.570;2023-04-03T15:08:31;13.00;99.90
3312;DHT22;1668;49.648;8.570;2023-04-03T15:10:58;13.60;99.90
3312;DHT22;1668;49.648;8.570;2023-04-03T15:13:26;13.70;99.90
3312;DHT22;1668;49.648;8.570;2023-04-03T15:15:53;13.90;99.90
3312;DHT22;1668;49.648;8.570;2023-04-03T15:18:22;13.90;99.90
3312;DHT22;1668;49.648;8.570;2023-04-03T15:20:51;14.00;99.90
3312;DHT22;1668;49.648;8.570;2023-04-03T15:23:19;13.50;99.90
3312;DHT22;1668;49.648;8.570;2023-04-03T15:25:47;13.70;99.90
3312;DHT22;1668;49.648;8.570;2023-04-03T15:28:19;14.00;99.90
3312;DHT22;1668;49.648;8.570;2023-04-03T15:30:48;13.80;99.90
3312;DHT22;1668;49.648;8.570;2023-04-03T15:33:15;13.50;99.90
3312;DHT22;1668;49.648;8.570;2023-04-03T15:35:43;13.40;99.90
3312;DHT22;1668;49.648;8.570;2023-04-03T15:38:10;13.30;99.90
3312;DHT22;1668;49.648;8.570;2023-04-03T15:40:37;13.10;99.90
3312;DHT22;1668;49.648;8.570;2023-04-03T15:43:05;12.90;99.90
3312;DHT22;1668;49.648;8.570;2023-04-03T15:45:33;12.70;99.90
3312;DHT22;1668;49.648;8.570;2023-04-03T15:48:00;12.40;99.90
3312;DHT22;1668;49.648;8.570;2023-04-03T15:50:28;12.20;99.90
3312;DHT22;1668;49.648;8.570;2023-04-03T15:52:56;12.10;99.90
3312;DHT22;1668;49.648;8.570;2023-04-03T15:55:24;12.20;99.90
3312;DHT22;1668;49.648;8.570;2023-04-03T15:57:52;12.20;99.90
3312;DHT22;1668;49.648;8.570;2023-04-03T16:00:19;12.10;99.90
3312;DHT22;1668;49.648;8.570;2023-04-03T16:02:49;12.00;99.90
3312;DHT22;1668;49.648;8.570;2023-04-03T16:05:17;11.90;99.90
3312;DHT22;1668;49.648;8.570;2023-04-03T16:07:45;11.80;99.90
3312;DHT22;1668;49.648;8.570;2023-04-03T16:10:15;11.70;99.90
3312;DHT22;1668;49.648;8.570;2023-04-03T16:12:42;11.60;99.90
3312;DHT22;1668;49.648;8.570;2023-04-03T16:15:10;11.70;99.90
3312;DHT22;1668;49.648;8.570;2023-04-03T16:17:37;11.70;99.90
3312;DHT22;1668;49.648;8.570;2023-04-03T16:20:07;11.30;99.90
3312;DHT22;1668;49.648;8.570;2023-04-03T16:22:34;11.20;99.90
3312;DHT22;1668;49.648;8.570;2023-04-03T16:25:02;11.20;99.90
3312;DHT22;1668;49.648;8.570;2023-04-03T16:27:30;11.20;99.90
3312;DHT22;1668;49.648;8.570;2023-04-03T16:29:57;11.20;99.90
3312;DHT22;1668;49.648;8.570;2023-04-03T16:32:27;11.10;99.90
3312;DHT22;1668;49.648;8.570;2023-04-03T16:34:56;11.10;99.90
3312;DHT22;1668;49.648;8.570;2023-04-03T16:37:23;11.10;99.90
3312;DHT22;1668;49.648;8.570;2023-04-03T16:39:49;11.10;99.90
3312;DHT22;1668;49.648;8.570;2023-04-03T16:42:16;11.00;99.90
3312;DHT22;1668;49.648;8.570;2023-04-03T16:44:44;11.00;99.90
3312;DHT22;1668;49.648;8.570;2023-04-03T16:47:12;11.00;99.90
3312;DHT22;1668;49.648;8.570;2023-04-03T16:49:39;11.00;99.90